sensor_id;sensor_type;location;lat;lon;timestamp;P1;durP1;ratioP1;P2;durP2;ratioP2
3791;SDS011;1911;53.768;11.474;2023-04-15T00:01:29;94.90;;;28.47;;
3791;SDS011;1911;53.768;11.474;2023-04-15T00:03:57;91.93;;;28.33;;
3791;SDS011;1911;53.768;11.474;2023-04-15T00:06:23;90.23;;;28.80;;
3791;SDS011;1911;53.768;11.474;2023-04-15T00:08:49;87.77;;;28.60;;
3791;SDS011;1911;53.768;11.474;2023-04-15T00:11:15;94.57;;;30.10;;
3791;SDS011;1911;53.768;11.474;2023-04-15T00:13:42;111.13;;;30.93;;
3791;SDS011;1911;53.768;11.474;2023-04-15T00:16:08;79.93;;;27.40;;
3791;SDS011;1911;53.768;11.474;2023-04-15T00:18:34;106.77;;;31.53;;
3791;SDS011;1911;53.768;11.474;2023-04-15T00:21:01;122.00;;;35.47;;
3791;SDS011;1911;53.768;11.474;2023-04-15T00:23:27;101.50;;;32.87;;
3791;SDS011;1911;53.768;11.474;2023-04-15T00:25:52;127.33;;;31.27;;
3791;SDS011;1911;53.768;11.474;2023-04-15T00:28:18;103.73;;;28.83;;
3791;SDS011;1911;53.768;11.474;2023-04-15T00:30:44;110.17;;;31.87;;
3791;SDS011;1911;53.768;11.474;2023-04-15T00:33:11;119.50;;;31.03;;
3791;SDS011;1911;53.768;11.474;2023-04-15T00:35:37;122.87;;;32.27;;
3791;SDS011;1911;53.768;11.474;2023-04-15T00:38:04;115.40;;;30.30;;
3791;SDS011;1911;53.768;11.474;2023-04-15T00:40:30;136.87;;;35.00;;
3791;SDS011;1911;53.768;11.474;2023-04-15T00:42:55;127.00;;;34.17;;
3791;SDS011;1911;53.768;11.474;2023-04-15T00:45:21;114.20;;;30.47;;
3791;SDS011;1911;53.768;11.474;2023-04-15T01:07:41;100.53;;;33.20;;
3791;SDS011;1911;53.768;11.474;2023-04-15T01:14:54;127.43;;;34.90;;
3791;SDS011;1911;53.768;11.474;2023-04-15T01:18:37;137.63;;;33.73;;
3791;SDS011;1911;53.768;11.474;2023-04-15T01:21:51;141.13;;;33.07;;
3791;SDS011;1911;53.768;11.474;2023-04-15T01:27:59;112.00;;;32.97;;
3791;SDS011;1911;53.768;11.474;2023-04-15T01:31:14;140.03;;;40.77;;
3791;SDS011;1911;53.768;11.474;2023-04-15T01:34:18;111.53;;;36.63;;
3791;SDS011;1911;53.768;11.474;2023-04-15T01:40:30;120.67;;;39.43;;
3791;SDS011;1911;53.768;11.474;2023-04-15T01:42:56;87.53;;;29.67;;
3791;SDS011;1911;53.768;11.474;2023-04-15T01:46:21;88.70;;;30.60;;
3791;SDS011;1911;53.768;11.474;2023-04-15T01:49:08;102.33;;;34.33;;
3791;SDS011;1911;53.768;11.474;2023-04-15T01:52:46;102.73;;;33.13;;
3791;SDS011;1911;53.768;11.474;2023-04-15T01:55:12;102.63;;;32.57;;
3791;SDS011;1911;53.768;11.474;2023-04-15T02:02:01;86.87;;;27.20;;
3791;SDS011;1911;53.768;11.474;2023-04-15T02:04:41;100.53;;;30.10;;
3791;SDS011;1911;53.768;11.474;2023-04-15T02:07:07;84.03;;;26.17;;
3791;SDS011;1911;53.768;11.474;2023-04-15T02:09:33;107.23;;;31.80;;
3791;SDS011;1911;53.768;11.474;2023-04-15T02:12:05;86.43;;;29.80;;
3791;SDS011;1911;53.768;11.474;2023-04-15T02:14:38;99.93;;;28.47;;
3791;SDS011;1911;53.768;11.474;2023-04-15T02:17:05;104.50;;;30.50;;
3791;SDS011;1911;53.768;11.474;2023-04-15T02:19:41;97.93;;;29.03;;
3791;SDS011;1911;53.768;11.474;2023-04-15T02:22:10;102.10;;;26.97;;
3791;SDS011;1911;53.768;11.474;2023-04-15T02:24:44;118.20;;;33.40;;
3791;SDS011;1911;53.768;11.474;2023-04-15T02:27:32;104.63;;;27.93;;
3791;SDS011;1911;53.768;11.474;2023-04-15T02:31:32;120.80;;;31.00;;
3791;SDS011;1911;53.768;11.474;2023-04-15T02:34:16;85.57;;;27.63;;
3791;SDS011;1911;53.768;11.474;2023-04-15T02:36:44;120.97;;;31.43;;
3791;SDS011;1911;53.768;11.474;2023-04-15T02:39:50;105.10;;;30.50;;
3791;SDS011;1911;53.768;11.474;2023-04-15T02:42:39;96.03;;;28.90;;
3791;SDS011;1911;53.768;11.474;2023-04-15T02:45:11;97.83;;;27.57;;
3791;SDS011;1911;53.768;11.474;2023-04-15T02:51:14;91.80;;;28.70;;
3791;SDS011;1911;53.768;11.474;2023-04-15T02:58:02;79.73;;;26.67;;
3791;SDS011;1911;53.768;11.474;2023-04-15T03:01:27;104.73;;;27.17;;
3791;SDS011;1911;53.768;11.474;2023-04-15T03:16:58;100.97;;;27.00;;
3791;SDS011;1911;53.768;11.474;2023-04-15T03:20:05;97.03;;;26.70;;
3791;SDS011;1911;53.768;11.474;2023-04-15T03:23:16;95.20;;;26.20;;
3791;SDS011;1911;53.768;11.474;2023-04-15T03:29:51;119.13;;;27.17;;
3791;SDS011;1911;53.768;11.474;2023-04-15T03:35:38;84.00;;;28.33;;
3791;SDS011;1911;53.768;11.474;2023-04-15T03:38:41;67.17;;;22.43;;
3791;SDS011;1911;53.768;11.474;2023-04-15T03:41:45;70.43;;;23.70;;
3791;SDS011;1911;53.768;11.474;2023-04-15T03:48:30;82.10;;;24.23;;
3791;SDS011;1911;53.768;11.474;2023-04-15T03:52:00;88.30;;;23.93;;
3791;SDS011;1911;53.768;11.474;2023-04-15T03:55:29;89.23;;;24.33;;
3791;SDS011;1911;53.768;11.474;2023-04-15T03:58:20;68.27;;;21.17;;
3791;SDS011;1911;53.768;11.474;2023-04-15T04:00:46;85.67;;;25.97;;
3791;SDS011;1911;53.768;11.474;2023-04-15T04:03:13;86.20;;;27.37;;
3791;SDS011;1911;53.768;11.474;2023-04-15T04:05:38;74.60;;;25.20;;
3791;SDS011;1911;53.768;11.474;2023-04-15T04:08:42;67.03;;;21.33;;
3791;SDS011;1911;53.768;11.474;2023-04-15T04:15:43;98.03;;;26.67;;
3791;SDS011;1911;53.768;11.474;2023-04-15T04:18:11;92.40;;;27.10;;
3791;SDS011;1911;53.768;11.474;2023-04-15T04:20:37;87.73;;;25.00;;
3791;SDS011;1911;53.768;11.474;2023-04-15T04:23:17;99.37;;;27.10;;
3791;SDS011;1911;53.768;11.474;2023-04-15T04:25:53;90.17;;;25.57;;
3791;SDS011;1911;53.768;11.474;2023-04-15T04:28:18;114.57;;;26.83;;
3791;SDS011;1911;53.768;11.474;2023-04-15T04:30:44;100.50;;;27.37;;
3791;SDS011;1911;53.768;11.474;2023-04-15T04:33:12;127.30;;;27.70;;
3791;SDS011;1911;53.768;11.474;2023-04-15T04:35:38;92.73;;;27.83;;
3791;SDS011;1911;53.768;11.474;2023-04-15T04:38:19;107.13;;;27.80;;
3791;SDS011;1911;53.768;11.474;2023-04-15T04:40:48;71.63;;;25.67;;
3791;SDS011;1911;53.768;11.474;2023-04-15T04:43:18;107.00;;;27.67;;
3791;SDS011;1911;53.768;11.474;2023-04-15T04:49:35;82.23;;;24.73;;
3791;SDS011;1911;53.768;11.474;2023-04-15T04:52:01;80.87;;;25.20;;
3791;SDS011;1911;53.768;11.474;2023-04-15T04:54:35;110.13;;;28.77;;
3791;SDS011;1911;53.768;11.474;2023-04-15T05:02:45;68.13;;;24.23;;
3791;SDS011;1911;53.768;11.474;2023-04-15T05:08:57;70.90;;;25.70;;
3791;SDS011;1911;53.768;11.474;2023-04-15T05:11:41;79.60;;;24.23;;
3791;SDS011;1911;53.768;11.474;2023-04-15T05:14:13;86.83;;;24.93;;
3791;SDS011;1911;53.768;11.474;2023-04-15T05:22:15;73.90;;;25.57;;
3791;SDS011;1911;53.768;11.474;2023-04-15T05:27:53;79.23;;;25.50;;
3791;SDS011;1911;53.768;11.474;2023-04-15T05:30:34;81.27;;;27.40;;
3791;SDS011;1911;53.768;11.474;2023-04-15T05:33:00;77.97;;;27.10;;
3791;SDS011;1911;53.768;11.474;2023-04-15T05:35:32;67.53;;;26.30;;
3791;SDS011;1911;53.768;11.474;2023-04-15T05:37:57;78.20;;;27.47;;
3791;SDS011;1911;53.768;11.474;2023-04-15T05:40:25;81.87;;;29.10;;
3791;SDS011;1911;53.768;11.474;2023-04-15T05:42:54;71.57;;;25.30;;
3791;SDS011;1911;53.768;11.474;2023-04-15T05:45:41;70.60;;;24.93;;
3791;SDS011;1911;53.768;11.474;2023-04-15T05:48:25;67.00;;;26.50;;
3791;SDS011;1911;53.768;11.474;2023-04-15T05:50:51;66.67;;;25.30;;
3791;SDS011;1911;53.768;11.474;2023-04-15T05:53:19;73.77;;;28.10;;
3791;SDS011;1911;53.768;11.474;2023-04-15T05:55:47;70.97;;;27.20;;
3791;SDS011;1911;53.768;11.474;2023-04-15T05:58:13;76.43;;;27.50;;
3791;SDS011;1911;53.768;11.474;2023-04-15T06:00:39;62.50;;;24.63;;
3791;SDS011;1911;53.768;11.474;2023-04-15T06:03:05;71.20;;;27.60;;
3791;SDS011;1911;53.768;11.474;2023-04-15T06:05:39;78.23;;;27.40;;
3791;SDS011;1911;53.768;11.474;2023-04-15T06:08:21;70.50;;;27.67;;
3791;SDS011;1911;53.768;11.474;2023-04-15T06:10:47;73.83;;;29.13;;
3791;SDS011;1911;53.768;11.474;2023-04-15T06:13:12;63.23;;;25.30;;
3791;SDS011;1911;53.768;11.474;2023-04-15T06:15:39;60.57;;;28.33;;
3791;SDS011;1911;53.768;11.474;2023-04-15T06:18:22;69.00;;;28.70;;
3791;SDS011;1911;53.768;11.474;2023-04-15T06:21:00;78.63;;;29.40;;
3791;SDS011;1911;53.768;11.474;2023-04-15T06:23:26;75.23;;;30.47;;
3791;SDS011;1911;53.768;11.474;2023-04-15T06:25:51;77.87;;;29.43;;
3791;SDS011;1911;53.768;11.474;2023-04-15T06:28:17;68.10;;;28.20;;
3791;SDS011;1911;53.768;11.474;2023-04-15T06:30:43;65.13;;;26.90;;
3791;SDS011;1911;53.768;11.474;2023-04-15T06:33:08;64.67;;;29.73;;
3791;SDS011;1911;53.768;11.474;2023-04-15T06:35:34;63.00;;;26.97;;
3791;SDS011;1911;53.768;11.474;2023-04-15T06:38:00;56.50;;;28.10;;
3791;SDS011;1911;53.768;11.474;2023-04-15T06:40:25;62.20;;;30.60;;
3791;SDS011;1911;53.768;11.474;2023-04-15T06:42:54;63.70;;;26.20;;
3791;SDS011;1911;53.768;11.474;2023-04-15T06:45:31;54.87;;;26.37;;
3791;SDS011;1911;53.768;11.474;2023-04-15T06:48:11;65.60;;;28.33;;
3791;SDS011;1911;53.768;11.474;2023-04-15T06:50:37;56.50;;;25.03;;
3791;SDS011;1911;53.768;11.474;2023-04-15T06:53:02;61.20;;;28.57;;
3791;SDS011;1911;53.768;11.474;2023-04-15T06:55:28;63.80;;;27.87;;
3791;SDS011;1911;53.768;11.474;2023-04-15T06:57:55;60.77;;;28.67;;
3791;SDS011;1911;53.768;11.474;2023-04-15T07:00:21;60.10;;;27.47;;
3791;SDS011;1911;53.768;11.474;2023-04-15T07:02:46;60.10;;;27.10;;
3791;SDS011;1911;53.768;11.474;2023-04-15T07:05:12;59.90;;;26.27;;
3791;SDS011;1911;53.768;11.474;2023-04-15T07:07:38;47.93;;;26.70;;
3791;SDS011;1911;53.768;11.474;2023-04-15T07:10:04;48.60;;;25.10;;
3791;SDS011;1911;53.768;11.474;2023-04-15T07:12:30;54.03;;;25.33;;
3791;SDS011;1911;53.768;11.474;2023-04-15T07:14:56;50.27;;;26.87;;
3791;SDS011;1911;53.768;11.474;2023-04-15T07:17:22;41.83;;;23.00;;
3791;SDS011;1911;53.768;11.474;2023-04-15T07:19:47;48.10;;;24.97;;
3791;SDS011;1911;53.768;11.474;2023-04-15T07:22:13;44.23;;;22.87;;
3791;SDS011;1911;53.768;11.474;2023-04-15T07:24:38;38.40;;;22.37;;
3791;SDS011;1911;53.768;11.474;2023-04-15T07:27:04;36.90;;;21.80;;
3791;SDS011;1911;53.768;11.474;2023-04-15T07:29:29;35.87;;;20.77;;
3791;SDS011;1911;53.768;11.474;2023-04-15T07:31:55;35.43;;;19.77;;
3791;SDS011;1911;53.768;11.474;2023-04-15T07:34:21;29.27;;;19.23;;
3791;SDS011;1911;53.768;11.474;2023-04-15T07:36:46;33.10;;;19.80;;
3791;SDS011;1911;53.768;11.474;2023-04-15T07:39:14;31.70;;;18.40;;
3791;SDS011;1911;53.768;11.474;2023-04-15T07:41:40;32.20;;;18.20;;
3791;SDS011;1911;53.768;11.474;2023-04-15T07:44:06;28.20;;;18.30;;
3791;SDS011;1911;53.768;11.474;2023-04-15T07:46:31;31.37;;;16.40;;
3791;SDS011;1911;53.768;11.474;2023-04-15T07:48:57;21.00;;;15.10;;
3791;SDS011;1911;53.768;11.474;2023-04-15T07:51:22;20.10;;;13.60;;
3791;SDS011;1911;53.768;11.474;2023-04-15T07:53:48;22.53;;;15.50;;
3791;SDS011;1911;53.768;11.474;2023-04-15T07:56:14;22.63;;;15.70;;
3791;SDS011;1911;53.768;11.474;2023-04-15T07:58:40;19.47;;;14.57;;
3791;SDS011;1911;53.768;11.474;2023-04-15T08:01:06;19.20;;;14.43;;
3791;SDS011;1911;53.768;11.474;2023-04-15T08:03:32;17.20;;;12.13;;
3791;SDS011;1911;53.768;11.474;2023-04-15T08:05:58;14.97;;;11.83;;
3791;SDS011;1911;53.768;11.474;2023-04-15T08:08:23;18.50;;;14.23;;
3791;SDS011;1911;53.768;11.474;2023-04-15T08:10:50;17.67;;;13.40;;
3791;SDS011;1911;53.768;11.474;2023-04-15T08:13:19;16.87;;;12.83;;
3791;SDS011;1911;53.768;11.474;2023-04-15T08:15:44;16.57;;;12.80;;
3791;SDS011;1911;53.768;11.474;2023-04-15T08:18:10;16.83;;;12.43;;
3791;SDS011;1911;53.768;11.474;2023-04-15T08:20:36;16.33;;;11.30;;
3791;SDS011;1911;53.768;11.474;2023-04-15T08:23:01;12.80;;;11.33;;
3791;SDS011;1911;53.768;11.474;2023-04-15T08:25:27;18.50;;;12.90;;
3791;SDS011;1911;53.768;11.474;2023-04-15T08:27:56;18.93;;;13.10;;
3791;SDS011;1911;53.768;11.474;2023-04-15T08:30:22;15.33;;;11.33;;
3791;SDS011;1911;53.768;11.474;2023-04-15T08:32:48;17.10;;;11.43;;
3791;SDS011;1911;53.768;11.474;2023-04-15T08:35:14;23.10;;;12.67;;
3791;SDS011;1911;53.768;11.474;2023-04-15T08:37:39;17.47;;;12.70;;
3791;SDS011;1911;53.768;11.474;2023-04-15T08:40:05;18.77;;;12.23;;
3791;SDS011;1911;53.768;11.474;2023-04-15T08:42:36;18.67;;;12.50;;
3791;SDS011;1911;53.768;11.474;2023-04-15T08:45:07;19.37;;;14.27;;
3791;SDS011;1911;53.768;11.474;2023-04-15T08:47:35;17.97;;;13.90;;
3791;SDS011;1911;53.768;11.474;2023-04-15T08:50:07;16.37;;;11.83;;
3791;SDS011;1911;53.768;11.474;2023-04-15T08:52:33;17.70;;;12.70;;
3791;SDS011;1911;53.768;11.474;2023-04-15T08:54:59;19.03;;;12.63;;
3791;SDS011;1911;53.768;11.474;2023-04-15T08:57:27;20.60;;;13.00;;
3791;SDS011;1911;53.768;11.474;2023-04-15T08:59:56;17.80;;;11.90;;
3791;SDS011;1911;53.768;11.474;2023-04-15T09:02:22;15.67;;;12.00;;
3791;SDS011;1911;53.768;11.474;2023-04-15T09:04:50;13.60;;;10.60;;
3791;SDS011;1911;53.768;11.474;2023-04-15T09:07:15;14.13;;;11.03;;
3791;SDS011;1911;53.768;11.474;2023-04-15T09:09:41;15.80;;;10.47;;
3791;SDS011;1911;53.768;11.474;2023-04-15T09:12:07;12.47;;;9.90;;
3791;SDS011;1911;53.768;11.474;2023-04-15T09:14:34;14.00;;;10.50;;
3791;SDS011;1911;53.768;11.474;2023-04-15T09:17:01;14.73;;;9.73;;
3791;SDS011;1911;53.768;11.474;2023-04-15T09:19:28;13.90;;;10.67;;
3791;SDS011;1911;53.768;11.474;2023-04-15T09:21:55;13.17;;;10.13;;
3791;SDS011;1911;53.768;11.474;2023-04-15T09:24:22;13.60;;;10.50;;
3791;SDS011;1911;53.768;11.474;2023-04-15T09:26:51;13.47;;;9.57;;
3791;SDS011;1911;53.768;11.474;2023-04-15T09:29:18;16.63;;;10.37;;
3791;SDS011;1911;53.768;11.474;2023-04-15T09:31:44;12.33;;;10.00;;
3791;SDS011;1911;53.768;11.474;2023-04-15T09:34:10;15.53;;;10.47;;
3791;SDS011;1911;53.768;11.474;2023-04-15T09:36:51;12.97;;;9.70;;
3791;SDS011;1911;53.768;11.474;2023-04-15T09:39:18;14.10;;;9.37;;
3791;SDS011;1911;53.768;11.474;2023-04-15T09:41:45;11.00;;;9.20;;
3791;SDS011;1911;53.768;11.474;2023-04-15T09:44:23;15.63;;;9.50;;
3791;SDS011;1911;53.768;11.474;2023-04-15T09:46:50;11.37;;;10.00;;
3791;SDS011;1911;53.768;11.474;2023-04-15T09:49:15;10.40;;;8.93;;
3791;SDS011;1911;53.768;11.474;2023-04-15T09:51:42;21.77;;;15.27;;
3791;SDS011;1911;53.768;11.474;2023-04-15T09:54:08;10.27;;;8.60;;
3791;SDS011;1911;53.768;11.474;2023-04-15T09:56:34;12.70;;;9.77;;
3791;SDS011;1911;53.768;11.474;2023-04-15T09:59:09;11.37;;;8.50;;
3791;SDS011;1911;53.768;11.474;2023-04-15T10:01:35;9.10;;;8.03;;
3791;SDS011;1911;53.768;11.474;2023-04-15T10:04:02;12.07;;;8.00;;
3791;SDS011;1911;53.768;11.474;2023-04-15T10:06:29;9.73;;;6.50;;
3791;SDS011;1911;53.768;11.474;2023-04-15T10:08:56;7.83;;;6.97;;
3791;SDS011;1911;53.768;11.474;2023-04-15T10:11:23;10.97;;;7.17;;
3791;SDS011;1911;53.768;11.474;2023-04-15T10:13:52;8.67;;;6.43;;
3791;SDS011;1911;53.768;11.474;2023-04-15T10:16:19;8.13;;;6.73;;
3791;SDS011;1911;53.768;11.474;2023-04-15T10:18:46;11.70;;;7.70;;
3791;SDS011;1911;53.768;11.474;2023-04-15T10:21:15;9.43;;;6.90;;
3791;SDS011;1911;53.768;11.474;2023-04-15T10:23:44;8.23;;;6.53;;
3791;SDS011;1911;53.768;11.474;2023-04-15T10:26:10;10.13;;;7.47;;
3791;SDS011;1911;53.768;11.474;2023-04-15T10:28:38;9.23;;;6.07;;
3791;SDS011;1911;53.768;11.474;2023-04-15T10:31:05;7.20;;;5.87;;
3791;SDS011;1911;53.768;11.474;2023-04-15T10:33:31;8.17;;;6.17;;
3791;SDS011;1911;53.768;11.474;2023-04-15T10:35:59;8.00;;;6.63;;
3791;SDS011;1911;53.768;11.474;2023-04-15T10:38:34;7.43;;;5.97;;
3791;SDS011;1911;53.768;11.474;2023-04-15T10:43:38;7.80;;;6.27;;
3791;SDS011;1911;53.768;11.474;2023-04-15T10:46:04;8.80;;;7.07;;
3791;SDS011;1911;53.768;11.474;2023-04-15T10:48:30;8.40;;;6.93;;
3791;SDS011;1911;53.768;11.474;2023-04-15T10:50:57;9.93;;;6.97;;
3791;SDS011;1911;53.768;11.474;2023-04-15T10:53:29;9.40;;;7.43;;
3791;SDS011;1911;53.768;11.474;2023-04-15T10:55:56;11.00;;;7.27;;
3791;SDS011;1911;53.768;11.474;2023-04-15T10:58:23;10.00;;;7.07;;
3791;SDS011;1911;53.768;11.474;2023-04-15T11:00:50;9.23;;;6.73;;
3791;SDS011;1911;53.768;11.474;2023-04-15T11:03:20;14.23;;;8.30;;
3791;SDS011;1911;53.768;11.474;2023-04-15T11:06:01;9.97;;;6.80;;
3791;SDS011;1911;53.768;11.474;2023-04-15T11:09:00;8.33;;;6.00;;
3791;SDS011;1911;53.768;11.474;2023-04-15T11:11:37;9.13;;;7.20;;
3791;SDS011;1911;53.768;11.474;2023-04-15T11:14:29;9.60;;;7.70;;
3791;SDS011;1911;53.768;11.474;2023-04-15T11:16:56;8.17;;;6.07;;
3791;SDS011;1911;53.768;11.474;2023-04-15T11:19:22;8.53;;;6.67;;
3791;SDS011;1911;53.768;11.474;2023-04-15T11:21:48;9.33;;;7.27;;
3791;SDS011;1911;53.768;11.474;2023-04-15T11:24:23;11.30;;;7.27;;
3791;SDS011;1911;53.768;11.474;2023-04-15T11:26:56;8.67;;;6.80;;
3791;SDS011;1911;53.768;11.474;2023-04-15T11:29:27;7.47;;;6.10;;
3791;SDS011;1911;53.768;11.474;2023-04-15T11:32:03;9.90;;;6.60;;
3791;SDS011;1911;53.768;11.474;2023-04-15T11:34:30;7.10;;;6.10;;
3791;SDS011;1911;53.768;11.474;2023-04-15T11:36:56;9.80;;;5.63;;
3791;SDS011;1911;53.768;11.474;2023-04-15T11:39:22;7.80;;;6.93;;
3791;SDS011;1911;53.768;11.474;2023-04-15T11:41:48;7.17;;;5.60;;
3791;SDS011;1911;53.768;11.474;2023-04-15T11:44:17;10.67;;;6.57;;
3791;SDS011;1911;53.768;11.474;2023-04-15T11:46:43;8.73;;;6.40;;
3791;SDS011;1911;53.768;11.474;2023-04-15T11:49:08;8.27;;;6.50;;
3791;SDS011;1911;53.768;11.474;2023-04-15T11:51:34;7.57;;;6.87;;
3791;SDS011;1911;53.768;11.474;2023-04-15T11:54:00;8.63;;;6.63;;
3791;SDS011;1911;53.768;11.474;2023-04-15T11:56:25;7.70;;;6.20;;
3791;SDS011;1911;53.768;11.474;2023-04-15T11:58:57;10.30;;;7.20;;
3791;SDS011;1911;53.768;11.474;2023-04-15T12:01:36;7.90;;;6.47;;
3791;SDS011;1911;53.768;11.474;2023-04-15T12:04:11;8.77;;;6.50;;
3791;SDS011;1911;53.768;11.474;2023-04-15T12:06:37;13.07;;;10.33;;
3791;SDS011;1911;53.768;11.474;2023-04-15T12:09:06;15.37;;;11.43;;
3791;SDS011;1911;53.768;11.474;2023-04-15T12:14:11;17.53;;;13.07;;
3791;SDS011;1911;53.768;11.474;2023-04-15T12:16:40;16.00;;;12.03;;
3791;SDS011;1911;53.768;11.474;2023-04-15T12:19:10;22.17;;;12.97;;
3791;SDS011;1911;53.768;11.474;2023-04-15T12:21:39;18.57;;;13.07;;
3791;SDS011;1911;53.768;11.474;2023-04-15T12:24:06;19.90;;;15.10;;
3791;SDS011;1911;53.768;11.474;2023-04-15T12:26:34;20.10;;;13.30;;
3791;SDS011;1911;53.768;11.474;2023-04-15T12:29:03;22.30;;;15.33;;
3791;SDS011;1911;53.768;11.474;2023-04-15T12:31:30;20.17;;;15.07;;
3791;SDS011;1911;53.768;11.474;2023-04-15T12:33:57;25.70;;;17.90;;
3791;SDS011;1911;53.768;11.474;2023-04-15T12:36:24;24.63;;;18.07;;
3791;SDS011;1911;53.768;11.474;2023-04-15T12:38:50;22.27;;;16.60;;
3791;SDS011;1911;53.768;11.474;2023-04-15T12:41:16;24.57;;;17.43;;
3791;SDS011;1911;53.768;11.474;2023-04-15T12:43:43;19.70;;;15.90;;
3791;SDS011;1911;53.768;11.474;2023-04-15T12:46:10;22.20;;;16.10;;
3791;SDS011;1911;53.768;11.474;2023-04-15T12:48:36;20.17;;;15.90;;
3791;SDS011;1911;53.768;11.474;2023-04-15T12:51:01;20.37;;;15.73;;
3791;SDS011;1911;53.768;11.474;2023-04-15T12:53:27;23.93;;;15.50;;
3791;SDS011;1911;53.768;11.474;2023-04-15T12:55:53;21.90;;;15.87;;
3791;SDS011;1911;53.768;11.474;2023-04-15T12:58:18;23.13;;;17.23;;
3791;SDS011;1911;53.768;11.474;2023-04-15T13:00:45;21.77;;;16.63;;
3791;SDS011;1911;53.768;11.474;2023-04-15T13:03:11;23.53;;;16.43;;
3791;SDS011;1911;53.768;11.474;2023-04-15T13:05:37;23.00;;;15.43;;
3791;SDS011;1911;53.768;11.474;2023-04-15T13:08:03;24.40;;;17.53;;
3791;SDS011;1911;53.768;11.474;2023-04-15T13:10:30;26.77;;;16.50;;
3791;SDS011;1911;53.768;11.474;2023-04-15T13:12:56;22.83;;;17.23;;
3791;SDS011;1911;53.768;11.474;2023-04-15T13:15:22;21.23;;;15.73;;
3791;SDS011;1911;53.768;11.474;2023-04-15T13:17:48;24.23;;;16.50;;
3791;SDS011;1911;53.768;11.474;2023-04-15T13:20:14;23.70;;;18.03;;
3791;SDS011;1911;53.768;11.474;2023-04-15T13:22:39;21.03;;;15.93;;
3791;SDS011;1911;53.768;11.474;2023-04-15T13:25:05;21.87;;;16.13;;
3791;SDS011;1911;53.768;11.474;2023-04-15T13:27:32;19.00;;;15.33;;
3791;SDS011;1911;53.768;11.474;2023-04-15T13:29:58;20.00;;;14.33;;
3791;SDS011;1911;53.768;11.474;2023-04-15T13:32:23;20.90;;;15.47;;
3791;SDS011;1911;53.768;11.474;2023-04-15T13:34:49;19.17;;;14.03;;
3791;SDS011;1911;53.768;11.474;2023-04-15T13:37:15;22.80;;;14.97;;
3791;SDS011;1911;53.768;11.474;2023-04-15T13:39:41;17.80;;;13.77;;
3791;SDS011;1911;53.768;11.474;2023-04-15T13:42:06;15.97;;;11.47;;
3791;SDS011;1911;53.768;11.474;2023-04-15T13:44:32;16.00;;;12.73;;
3791;SDS011;1911;53.768;11.474;2023-04-15T13:46:58;17.97;;;12.10;;
3791;SDS011;1911;53.768;11.474;2023-04-15T13:49:24;17.63;;;12.50;;
3791;SDS011;1911;53.768;11.474;2023-04-15T13:51:49;15.77;;;11.10;;
3791;SDS011;1911;53.768;11.474;2023-04-15T13:54:15;15.13;;;12.30;;
3791;SDS011;1911;53.768;11.474;2023-04-15T13:56:41;16.50;;;11.80;;
3791;SDS011;1911;53.768;11.474;2023-04-15T13:59:06;15.60;;;11.07;;
3791;SDS011;1911;53.768;11.474;2023-04-15T14:01:33;12.73;;;10.10;;
3791;SDS011;1911;53.768;11.474;2023-04-15T14:03:59;12.93;;;10.20;;
3791;SDS011;1911;53.768;11.474;2023-04-15T14:06:24;14.47;;;10.00;;
3791;SDS011;1911;53.768;11.474;2023-04-15T14:08:51;12.00;;;9.00;;
3791;SDS011;1911;53.768;11.474;2023-04-15T14:11:16;14.50;;;10.50;;
3791;SDS011;1911;53.768;11.474;2023-04-15T14:13:42;12.07;;;10.20;;
3791;SDS011;1911;53.768;11.474;2023-04-15T14:16:08;11.87;;;9.80;;
3791;SDS011;1911;53.768;11.474;2023-04-15T14:18:34;13.17;;;11.20;;
3791;SDS011;1911;53.768;11.474;2023-04-15T14:21:01;11.80;;;9.07;;
3791;SDS011;1911;53.768;11.474;2023-04-15T14:23:27;11.57;;;8.67;;
3791;SDS011;1911;53.768;11.474;2023-04-15T14:25:53;11.70;;;8.70;;
3791;SDS011;1911;53.768;11.474;2023-04-15T14:28:18;11.77;;;9.17;;
3791;SDS011;1911;53.768;11.474;2023-04-15T14:30:44;14.23;;;10.57;;
3791;SDS011;1911;53.768;11.474;2023-04-15T14:33:10;14.20;;;10.67;;
3791;SDS011;1911;53.768;11.474;2023-04-15T14:35:35;15.20;;;10.40;;
3791;SDS011;1911;53.768;11.474;2023-04-15T14:38:01;17.20;;;10.90;;
3791;SDS011;1911;53.768;11.474;2023-04-15T14:40:27;14.80;;;11.00;;
3791;SDS011;1911;53.768;11.474;2023-04-15T14:42:53;13.23;;;10.90;;
3791;SDS011;1911;53.768;11.474;2023-04-15T14:45:18;20.80;;;13.37;;
3791;SDS011;1911;53.768;11.474;2023-04-15T14:47:44;28.73;;;17.10;;
3791;SDS011;1911;53.768;11.474;2023-04-15T14:50:10;20.27;;;14.43;;
3791;SDS011;1911;53.768;11.474;2023-04-15T14:52:36;21.10;;;16.20;;
3791;SDS011;1911;53.768;11.474;2023-04-15T14:55:05;24.40;;;15.07;;
3791;SDS011;1911;53.768;11.474;2023-04-15T14:57:34;26.30;;;17.40;;
3791;SDS011;1911;53.768;11.474;2023-04-15T15:00:01;26.33;;;18.83;;
3791;SDS011;1911;53.768;11.474;2023-04-15T15:02:28;24.17;;;17.10;;
3791;SDS011;1911;53.768;11.474;2023-04-15T15:04:54;29.87;;;19.13;;
3791;SDS011;1911;53.768;11.474;2023-04-15T15:07:21;24.27;;;17.53;;
3791;SDS011;1911;53.768;11.474;2023-04-15T15:09:47;19.47;;;16.60;;
3791;SDS011;1911;53.768;11.474;2023-04-15T15:12:12;26.63;;;17.90;;
3791;SDS011;1911;53.768;11.474;2023-04-15T15:14:38;22.10;;;16.87;;
3791;SDS011;1911;53.768;11.474;2023-04-15T15:17:04;26.83;;;16.03;;
3791;SDS011;1911;53.768;11.474;2023-04-15T15:19:29;24.50;;;17.40;;
3791;SDS011;1911;53.768;11.474;2023-04-15T15:21:55;23.70;;;16.20;;
3791;SDS011;1911;53.768;11.474;2023-04-15T15:24:21;28.87;;;18.47;;
3791;SDS011;1911;53.768;11.474;2023-04-15T15:26:46;27.10;;;20.03;;
3791;SDS011;1911;53.768;11.474;2023-04-15T15:29:12;25.27;;;18.63;;
3791;SDS011;1911;53.768;11.474;2023-04-15T15:31:38;30.23;;;18.90;;
3791;SDS011;1911;53.768;11.474;2023-04-15T15:34:03;26.10;;;18.63;;
3791;SDS011;1911;53.768;11.474;2023-04-15T15:36:29;31.43;;;19.43;;
3791;SDS011;1911;53.768;11.474;2023-04-15T15:38:56;30.00;;;19.03;;
3791;SDS011;1911;53.768;11.474;2023-04-15T15:41:22;25.23;;;18.97;;
3791;SDS011;1911;53.768;11.474;2023-04-15T15:43:47;26.17;;;16.60;;
3791;SDS011;1911;53.768;11.474;2023-04-15T15:46:13;25.27;;;18.40;;
3791;SDS011;1911;53.768;11.474;2023-04-15T15:48:39;25.83;;;17.63;;
3791;SDS011;1911;53.768;11.474;2023-04-15T15:51:04;26.67;;;17.30;;
3791;SDS011;1911;53.768;11.474;2023-04-15T15:53:30;27.97;;;19.27;;
3791;SDS011;1911;53.768;11.474;2023-04-15T15:55:55;22.80;;;16.90;;
3791;SDS011;1911;53.768;11.474;2023-04-15T15:58:21;35.53;;;19.67;;
3791;SDS011;1911;53.768;11.474;2023-04-15T16:00:47;28.70;;;19.27;;
3791;SDS011;1911;53.768;11.474;2023-04-15T16:03:12;29.27;;;20.10;;
3791;SDS011;1911;53.768;11.474;2023-04-15T16:05:38;28.33;;;18.00;;
3791;SDS011;1911;53.768;11.474;2023-04-15T16:08:04;27.50;;;18.73;;
3791;SDS011;1911;53.768;11.474;2023-04-15T16:10:30;28.43;;;18.50;;
3791;SDS011;1911;53.768;11.474;2023-04-15T16:12:55;28.63;;;19.80;;
3791;SDS011;1911;53.768;11.474;2023-04-15T16:15:21;27.87;;;19.00;;
3791;SDS011;1911;53.768;11.474;2023-04-15T16:17:48;27.70;;;19.17;;
3791;SDS011;1911;53.768;11.474;2023-04-15T16:20:14;34.30;;;20.30;;
3791;SDS011;1911;53.768;11.474;2023-04-15T16:22:40;33.33;;;18.27;;
3791;SDS011;1911;53.768;11.474;2023-04-15T16:25:06;26.73;;;18.37;;
3791;SDS011;1911;53.768;11.474;2023-04-15T16:27:32;27.90;;;18.20;;
3791;SDS011;1911;53.768;11.474;2023-04-15T16:29:58;32.00;;;19.60;;
3791;SDS011;1911;53.768;11.474;2023-04-15T16:32:24;27.80;;;17.80;;
3791;SDS011;1911;53.768;11.474;2023-04-15T16:34:51;29.90;;;17.50;;